createdAt,value
2017-07-29T00:02:16.197Z,53.29
2017-07-29T00:04:54.645Z,53.39
2017-07-29T00:07:32.272Z,53.41
2017-07-29T00:10:16.854Z,53.24
2017-07-29T00:13:02.081Z,53.43
2017-07-29T00:15:38.223Z,53.37
2017-07-29T00:18:12.196Z,53.78
2017-07-29T00:20:45.350Z,53.87
2017-07-29T00:23:18.438Z,54.00
2017-07-29T00:25:51.163Z,53.96
2017-07-29T00:28:23.499Z,53.97
2017-07-29T00:30:55.412Z,54.22
2017-07-29T00:33:28.395Z,54.16
2017-07-29T00:36:06.608Z,54.28
2017-07-29T00:38:38.654Z,54.30
2017-07-29T00:41:12.256Z,54.29
2017-07-29T00:43:44.865Z,54.28
2017-07-29T00:46:17.534Z,54.66
2017-07-29T00:48:50.176Z,54.48
2017-07-29T00:51:22.331Z,54.39
2017-07-29T00:53:55.092Z,54.40
2017-07-29T00:56:27.462Z,54.64
2017-07-29T00:59:05.030Z,54.59
2017-07-29T01:01:38.268Z,54.65
2017-07-29T01:04:10.897Z,54.74
2017-07-29T01:06:43.226Z,54.67
2017-07-29T01:09:15.373Z,54.76
2017-07-29T01:11:47.915Z,54.83
2017-07-29T01:14:19.900Z,54.81
2017-07-29T01:16:52.896Z,54.86
2017-07-29T01:19:26.791Z,54.68
2017-07-29T01:22:02.940Z,55.08
2017-07-29T01:24:35.594Z,54.80
2017-07-29T01:27:07.746Z,54.92
2017-07-29T01:29:40.501Z,54.85
2017-07-29T01:32:14.134Z,54.76
2017-07-29T01:34:47.360Z,54.83
2017-07-29T01:37:19.826Z,54.89
2017-07-29T01:39:52.673Z,54.92
2017-07-29T01:42:25.251Z,55.03
2017-07-29T01:45:00.892Z,55.19
2017-07-29T01:47:33.622Z,55.31
2017-07-29T01:50:05.793Z,55.25
2017-07-29T01:52:38.385Z,55.32
2017-07-29T01:55:11.433Z,55.38
2017-07-29T01:57:43.808Z,55.34
2017-07-29T02:00:17.343Z,55.28
2017-07-29T02:02:50.068Z,55.50
2017-07-29T02:05:24.381Z,55.26
2017-07-29T02:07:59.260Z,55.34
2017-07-29T02:10:31.692Z,55.30
2017-07-29T02:13:05.430Z,55.27
2017-07-29T02:15:37.672Z,55.26
2017-07-29T02:18:09.620Z,55.37
2017-07-29T02:20:41.998Z,55.20
2017-07-29T02:23:14.843Z,55.27
2017-07-29T02:25:47.133Z,55.35
2017-07-29T02:28:19.956Z,55.33
2017-07-29T02:30:52.760Z,55.45
2017-07-29T02:33:25.202Z,55.36
2017-07-29T02:35:59.470Z,55.28
2017-07-29T02:38:31.965Z,55.31
2017-07-29T02:41:06.303Z,55.37
2017-07-29T02:43:38.887Z,55.32
2017-07-29T02:46:12.237Z,55.33
2017-07-29T02:48:46.331Z,55.31
2017-07-29T02:51:19.921Z,55.30
2017-07-29T02:53:52.372Z,55.36
2017-07-29T02:56:25.622Z,55.42
2017-07-29T02:59:01.529Z,55.37
2017-07-29T03:01:34.530Z,55.32
2017-07-29T03:04:07.702Z,55.34
2017-07-29T03:06:40.936Z,55.43
2017-07-29T03:09:13.677Z,55.40
2017-07-29T03:11:46.566Z,55.44
2017-07-29T03:14:19.967Z,55.34
2017-07-29T03:16:52.531Z,55.43
2017-07-29T03:19:24.765Z,55.42
2017-07-29T03:22:02.025Z,55.43
2017-07-29T03:24:35.159Z,55.33
2017-07-29T03:27:07.588Z,55.44
2017-07-29T03:29:40.502Z,55.45
2017-07-29T03:32:13.555Z,55.40
2017-07-29T03:34:45.985Z,55.49
2017-07-29T03:37:18.852Z,55.55
2017-07-29T03:39:51.946Z,55.61
2017-07-29T03:42:24.669Z,55.56
2017-07-29T03:47:35.248Z,55.50
2017-07-29T03:50:07.792Z,55.49
2017-07-29T03:52:40.219Z,55.57
2017-07-29T03:55:12.526Z,55.55
2017-07-29T03:57:45.058Z,55.61
2017-07-29T04:00:17.653Z,55.52
2017-07-29T04:02:50.025Z,55.59
2017-07-29T04:05:22.836Z,55.60
2017-07-29T04:07:55.122Z,55.53
2017-07-29T04:10:27.841Z,55.64
2017-07-29T04:13:02.189Z,55.61
2017-07-29T04:15:34.916Z,55.61
2017-07-29T04:18:08.061Z,55.66
2017-07-29T04:20:40.569Z,55.63
2017-07-29T04:23:12.941Z,55.65
2017-07-29T04:25:46.009Z,55.69
2017-07-29T04:28:18.753Z,55.78
2017-07-29T04:30:51.478Z,55.76
2017-07-29T04:33:23.911Z,55.77
2017-07-29T04:35:56.291Z,55.68
2017-07-29T04:38:31.594Z,55.82
2017-07-29T04:41:06.739Z,55.70
2017-07-29T04:43:39.714Z,55.72
2017-07-29T04:46:13.073Z,55.66
2017-07-29T04:48:45.357Z,55.64
2017-07-29T04:51:18.494Z,55.60
2017-07-29T04:53:51.277Z,55.67
2017-07-29T04:56:23.750Z,55.60
2017-07-29T04:58:56.315Z,55.71
2017-07-29T05:01:31.593Z,55.49
2017-07-29T05:04:06.402Z,55.58
2017-07-29T05:06:39.659Z,55.49
2017-07-29T05:09:12.610Z,55.54
2017-07-29T05:11:46.116Z,55.49
2017-07-29T05:14:19.117Z,55.43
2017-07-29T05:16:52.058Z,55.27
2017-07-29T05:19:26.936Z,55.28
2017-07-29T05:22:00.339Z,55.17
2017-07-29T05:24:32.965Z,55.26
2017-07-29T05:27:06.524Z,55.30
2017-07-29T05:29:39.000Z,55.26
2017-07-29T05:32:13.466Z,55.23
2017-07-29T05:34:45.564Z,55.21
2017-07-29T05:37:18.015Z,55.41
2017-07-29T05:39:50.950Z,55.57
2017-07-29T05:42:24.873Z,55.24
2017-07-29T05:44:57.878Z,55.29
2017-07-29T05:47:32.956Z,55.33
2017-07-29T05:50:05.353Z,55.37
2017-07-29T05:52:37.970Z,55.33
2017-07-29T05:55:12.618Z,55.41
2017-07-29T05:57:46.893Z,55.46
2017-07-29T06:00:23.867Z,55.55
2017-07-29T06:02:57.199Z,55.55
2017-07-29T06:05:32.938Z,55.50
2017-07-29T06:08:05.465Z,55.52
2017-07-29T06:10:39.509Z,55.50
2017-07-29T06:13:12.142Z,55.57
2017-07-29T06:15:44.614Z,55.92
2017-07-29T06:18:17.406Z,55.64
2017-07-29T06:20:49.551Z,55.81
2017-07-29T06:23:22.742Z,55.76
2017-07-29T06:25:55.263Z,55.71
2017-07-29T06:28:29.091Z,55.68
2017-07-29T06:31:02.397Z,55.85
2017-07-29T06:33:34.852Z,55.80
2017-07-29T06:36:07.166Z,55.94
2017-07-29T06:38:40.184Z,55.89
2017-07-29T06:41:12.953Z,55.85
2017-07-29T06:43:49.069Z,55.88
2017-07-29T06:46:21.470Z,56.06
2017-07-29T06:48:55.505Z,56.84
2017-07-29T06:51:28.070Z,56.73
2017-07-29T06:54:00.268Z,56.91
2017-07-29T06:56:33.298Z,57.46
2017-07-29T06:59:06.788Z,56.89
2017-07-29T07:01:39.409Z,56.96
2017-07-29T07:04:12.181Z,56.73
2017-07-29T07:06:44.851Z,56.82
2017-07-29T07:09:19.423Z,57.14
2017-07-29T07:11:55.693Z,56.56
2017-07-29T07:14:32.066Z,56.49
2017-07-29T07:17:04.524Z,56.67
2017-07-29T07:19:38.260Z,56.42
2017-07-29T07:22:11.610Z,56.41
2017-07-29T07:24:44.978Z,56.25
2017-07-29T07:27:20.103Z,56.23
2017-07-29T07:29:57.313Z,56.58
2017-07-29T07:32:31.070Z,56.75
2017-07-29T07:35:03.595Z,56.41
2017-07-29T07:37:36.978Z,56.18
2017-07-29T07:40:10.164Z,56.53
2017-07-29T07:42:43.441Z,56.46
2017-07-29T07:45:15.956Z,56.29
2017-07-29T07:47:50.911Z,56.11
2017-07-29T07:50:23.358Z,56.09
2017-07-29T07:52:56.136Z,55.92
2017-07-29T07:55:29.783Z,56.04
2017-07-29T07:58:01.890Z,55.93
2017-07-29T08:00:34.341Z,56.03
2017-07-29T08:03:06.426Z,55.84
2017-07-29T08:05:38.437Z,55.88
2017-07-29T08:08:10.449Z,55.71
2017-07-29T08:10:42.529Z,55.71
2017-07-29T08:13:15.382Z,55.79
2017-07-29T08:15:51.996Z,56.04
2017-07-29T08:18:23.933Z,56.06
2017-07-29T08:20:57.497Z,55.99
2017-07-29T08:23:29.526Z,56.13
2017-07-29T08:26:02.146Z,55.99
2017-07-29T08:28:35.504Z,56.12
2017-07-29T08:31:09.118Z,55.63
2017-07-29T08:33:41.693Z,55.53
2017-07-29T08:36:15.634Z,56.40
2017-07-29T08:38:53.892Z,56.49
2017-07-29T08:41:27.126Z,57.02
2017-07-29T08:43:59.253Z,56.94
2017-07-29T08:46:31.588Z,56.50
2017-07-29T08:49:03.519Z,56.36
2017-07-29T08:51:37.383Z,56.54
2017-07-29T08:54:10.485Z,56.01
2017-07-29T08:56:43.504Z,55.83
2017-07-29T08:59:15.470Z,55.55
2017-07-29T09:01:50.438Z,55.35
2017-07-29T09:04:22.507Z,55.29
2017-07-29T09:06:56.225Z,55.40
2017-07-29T09:09:28.456Z,55.30
2017-07-29T09:12:00.375Z,55.17
2017-07-29T09:14:32.740Z,55.15
2017-07-29T09:17:04.782Z,55.12
2017-07-29T09:19:37.033Z,55.02
2017-07-29T09:22:10.087Z,54.95
2017-07-29T09:24:42.189Z,55.01
2017-07-29T09:27:14.546Z,55.09
2017-07-29T09:29:46.417Z,54.89
2017-07-29T09:32:21.841Z,54.90
2017-07-29T09:34:55.184Z,54.67
2017-07-29T09:37:27.661Z,54.51
2017-07-29T09:39:59.780Z,54.59
2017-07-29T09:42:35.716Z,54.53
2017-07-29T09:45:08.674Z,54.37
2017-07-29T09:47:40.825Z,54.29
2017-07-29T09:50:13.493Z,54.25
2017-07-29T09:52:46.247Z,54.08
2017-07-29T09:55:19.365Z,54.00
2017-07-29T09:57:54.662Z,53.99
2017-07-29T10:00:27.240Z,53.83
2017-07-29T10:02:59.309Z,53.82
2017-07-29T10:05:31.684Z,53.57
2017-07-29T10:08:04.401Z,53.62
2017-07-29T10:10:36.689Z,53.81
2017-07-29T10:13:08.883Z,53.67
2017-07-29T10:15:40.892Z,53.73
2017-07-29T10:18:12.939Z,53.61
2017-07-29T10:20:45.429Z,53.61
2017-07-29T10:23:17.469Z,53.55
2017-07-29T10:25:51.786Z,53.60
2017-07-29T10:28:23.881Z,53.55
2017-07-29T10:30:57.207Z,53.72
2017-07-29T10:33:29.336Z,53.97
2017-07-29T10:36:01.535Z,54.10
2017-07-29T10:38:33.695Z,54.38
2017-07-29T10:41:06.487Z,54.48
2017-07-29T10:43:38.603Z,54.19
2017-07-29T10:46:10.612Z,53.87
2017-07-29T10:48:42.621Z,53.68
2017-07-29T10:51:14.794Z,53.47
2017-07-29T10:53:46.988Z,52.75
2017-07-29T10:56:21.346Z,52.65
2017-07-29T10:58:55.220Z,52.66
2017-07-29T11:01:27.717Z,52.49
2017-07-29T11:04:00.531Z,52.71
2017-07-29T11:06:32.899Z,52.72
2017-07-29T11:09:05.997Z,52.61
2017-07-29T11:11:38.100Z,52.41
2017-07-29T11:14:10.166Z,52.61
2017-07-29T11:16:43.077Z,52.85
2017-07-29T11:19:15.434Z,52.70
2017-07-29T11:21:50.129Z,52.32
2017-07-29T11:24:22.538Z,52.33
2017-07-29T11:26:56.164Z,51.99
2017-07-29T11:29:28.158Z,52.03
2017-07-29T11:32:00.526Z,52.15
2017-07-29T11:34:32.902Z,52.00
2017-07-29T11:37:04.943Z,52.10
2017-07-29T11:39:37.166Z,52.23
2017-07-29T11:42:10.368Z,52.34
2017-07-29T11:44:42.705Z,52.39
2017-07-29T11:47:16.210Z,52.38
2017-07-29T11:49:50.638Z,52.87
2017-07-29T11:52:22.847Z,52.83
2017-07-29T11:54:56.693Z,52.68
2017-07-29T11:57:28.937Z,52.52
2017-07-29T12:00:01.626Z,52.48
2017-07-29T12:02:34.414Z,52.21
2017-07-29T12:05:06.943Z,52.54
2017-07-29T12:07:40.351Z,52.41
2017-07-29T12:10:12.940Z,52.21
2017-07-29T12:12:45.533Z,51.58
2017-07-29T12:15:17.951Z,51.69
2017-07-29T12:17:52.806Z,52.16
2017-07-29T12:20:42.622Z,52.35
2017-07-29T12:23:18.481Z,52.48
2017-07-29T12:25:54.333Z,52.49
2017-07-29T12:28:26.444Z,52.35
2017-07-29T12:30:59.027Z,52.37
2017-07-29T12:33:31.229Z,52.65
2017-07-29T12:36:03.320Z,52.93
2017-07-29T12:38:36.770Z,52.97
2017-07-29T12:41:09.870Z,52.86
2017-07-29T12:43:41.953Z,52.76
2017-07-29T12:46:14.210Z,52.70
2017-07-29T12:48:46.408Z,52.83
2017-07-29T12:51:21.409Z,52.87
2017-07-29T12:53:56.110Z,52.99
2017-07-29T12:56:28.839Z,53.07
2017-07-29T12:59:01.055Z,53.35
2017-07-29T13:01:33.745Z,53.23
2017-07-29T13:04:06.013Z,53.25
2017-07-29T13:06:38.420Z,53.11
2017-07-29T13:09:12.032Z,53.19
2017-07-29T13:12:14.718Z,53.43
2017-07-29T13:14:51.122Z,53.42
2017-07-29T13:17:23.482Z,53.37
2017-07-29T13:19:55.623Z,53.06
2017-07-29T13:22:27.959Z,53.32
2017-07-29T13:25:00.232Z,53.14
2017-07-29T13:27:32.333Z,53.21
2017-07-29T13:30:05.889Z,53.16
2017-07-29T13:32:38.978Z,53.18
2017-07-29T13:35:11.520Z,53.02
2017-07-29T13:37:43.936Z,52.78
2017-07-29T13:40:16.229Z,52.04
2017-07-29T13:42:49.013Z,50.22
2017-07-29T13:45:21.163Z,50.10
2017-07-29T13:47:56.431Z,50.19
2017-07-29T13:50:28.543Z,50.19
2017-07-29T13:53:00.860Z,49.61
2017-07-29T13:55:33.288Z,49.45
2017-07-29T13:58:05.500Z,50.18
2017-07-29T14:00:37.662Z,49.89
2017-07-29T14:03:13.048Z,49.52
2017-07-29T14:05:45.258Z,50.38
2017-07-29T14:08:18.237Z,50.17
2017-07-29T14:10:50.215Z,50.48
2017-07-29T14:13:23.987Z,51.44
2017-07-29T14:15:58.488Z,51.92
2017-07-29T14:18:30.501Z,51.69
2017-07-29T14:21:02.516Z,51.24
2017-07-29T14:23:34.963Z,50.48
2017-07-29T14:26:09.778Z,50.13
2017-07-29T14:28:42.377Z,50.61
2017-07-29T14:31:14.466Z,50.41
2017-07-29T14:33:46.970Z,50.61
2017-07-29T14:36:21.087Z,50.91
2017-07-29T14:38:56.415Z,51.15
2017-07-29T14:41:29.093Z,51.27
2017-07-29T14:44:01.657Z,51.23
2017-07-29T14:46:33.629Z,51.71
2017-07-29T14:49:06.437Z,51.59
2017-07-29T14:51:38.718Z,51.51
2017-07-29T14:54:12.164Z,51.62
2017-07-29T14:56:44.207Z,51.77
2017-07-29T14:59:16.214Z,51.56
2017-07-29T15:01:54.564Z,51.38
2017-07-29T15:04:26.602Z,51.71
2017-07-29T15:06:59.141Z,51.87
2017-07-29T15:09:31.313Z,52.03
2017-07-29T15:12:03.823Z,52.00
2017-07-29T15:14:36.002Z,51.90
2017-07-29T15:17:08.369Z,51.70
2017-07-29T15:19:40.473Z,51.74
2017-07-29T15:22:12.816Z,51.65
2017-07-29T15:24:45.033Z,51.60
2017-07-29T15:27:17.483Z,51.88
2017-07-29T15:29:52.102Z,51.99
2017-07-29T15:32:24.843Z,52.06
2017-07-29T15:34:57.161Z,52.29
2017-07-29T15:37:29.298Z,52.32
2017-07-29T15:40:01.675Z,52.39
2017-07-29T15:42:34.971Z,52.99
2017-07-29T15:45:07.273Z,52.96
2017-07-29T15:47:40.618Z,52.77
2017-07-29T15:50:13.543Z,52.19
2017-07-29T15:52:46.231Z,52.06
2017-07-29T15:55:18.286Z,51.88
2017-07-29T15:57:54.099Z,51.64
2017-07-29T16:00:26.513Z,51.46
2017-07-29T16:02:58.609Z,51.32
2017-07-29T16:05:30.862Z,51.58
2017-07-29T16:08:03.494Z,51.74
2017-07-29T16:10:35.566Z,51.59
2017-07-29T16:13:07.866Z,51.49
2017-07-29T16:15:39.930Z,51.75
2017-07-29T16:18:11.953Z,52.24
2017-07-29T16:20:44.629Z,51.81
2017-07-29T16:23:16.649Z,52.03
2017-07-29T16:25:51.395Z,52.21
2017-07-29T16:28:23.436Z,52.22
2017-07-29T16:30:56.225Z,52.21
2017-07-29T16:33:28.886Z,52.19
2017-07-29T16:36:01.274Z,52.36
2017-07-29T16:38:33.613Z,51.80
2017-07-29T16:41:05.806Z,51.98
2017-07-29T16:43:38.976Z,51.62
2017-07-29T16:46:11.609Z,51.87
2017-07-29T16:48:43.952Z,51.62
2017-07-29T16:51:16.845Z,51.48
2017-07-29T16:53:51.943Z,51.72
2017-07-29T16:56:23.936Z,51.49
2017-07-29T16:58:58.486Z,51.53
2017-07-29T17:01:30.638Z,51.66
2017-07-29T17:04:03.992Z,51.32
2017-07-29T17:06:36.893Z,51.35
2017-07-29T17:09:09.193Z,51.73
2017-07-29T17:11:43.257Z,51.34
2017-07-29T17:14:15.276Z,51.47
2017-07-29T17:16:49.691Z,51.76
2017-07-29T17:19:22.257Z,51.62
2017-07-29T17:21:56.283Z,51.63
2017-07-29T17:24:28.526Z,52.08
2017-07-29T17:27:01.433Z,52.04
2017-07-29T17:29:33.915Z,52.31
2017-07-29T17:32:06.164Z,52.44
2017-07-29T17:34:38.407Z,52.64
2017-07-29T17:37:10.688Z,52.82
2017-07-29T17:39:43.011Z,52.62
2017-07-29T17:42:15.465Z,52.88
2017-07-29T17:44:49.785Z,52.88
2017-07-29T17:47:45.676Z,52.81
2017-07-29T17:50:35.523Z,53.21
2017-07-29T17:53:07.749Z,53.11
2017-07-29T17:55:40.100Z,53.19
2017-07-29T17:58:12.704Z,53.20
2017-07-29T18:00:46.453Z,53.40
2017-07-29T18:03:21.506Z,53.38
2017-07-29T18:05:56.375Z,53.38
2017-07-29T18:08:29.187Z,53.63
2017-07-29T18:11:02.115Z,53.72
2017-07-29T18:13:37.007Z,54.01
2017-07-29T18:16:08.998Z,54.13
2017-07-29T18:18:41.647Z,54.03
2017-07-29T18:21:13.743Z,53.93
2017-07-29T18:23:49.653Z,53.88
2017-07-29T18:26:22.525Z,53.96
2017-07-29T18:28:57.563Z,54.19
2017-07-29T18:31:29.836Z,54.15
2017-07-29T18:34:03.535Z,54.10
2017-07-29T18:36:36.039Z,54.29
2017-07-29T18:39:08.720Z,54.66
2017-07-29T18:41:42.061Z,54.84
2017-07-29T18:44:14.433Z,54.95
2017-07-29T18:46:46.891Z,55.25
2017-07-29T18:49:21.663Z,55.86
2017-07-29T18:51:54.140Z,55.93
2017-07-29T18:54:27.535Z,56.31
2017-07-29T18:57:01.333Z,56.42
2017-07-29T18:59:33.819Z,56.64
2017-07-29T19:02:05.957Z,57.17
2017-07-29T19:04:39.919Z,57.31
2017-07-29T19:07:12.976Z,57.70
2017-07-29T19:09:45.346Z,57.59
2017-07-29T19:12:17.765Z,57.68
2017-07-29T19:14:53.716Z,57.64
2017-07-29T19:17:26.382Z,57.50
2017-07-29T19:20:01.028Z,57.62
2017-07-29T19:22:33.463Z,57.65
2017-07-29T19:25:08.805Z,57.60
2017-07-29T19:27:41.003Z,57.67
2017-07-29T19:30:13.551Z,57.66
2017-07-29T19:32:46.894Z,57.64
2017-07-29T19:35:19.113Z,57.64
2017-07-29T19:37:51.413Z,57.65
2017-07-29T19:40:24.752Z,57.68
2017-07-29T19:42:57.597Z,57.70
2017-07-29T19:45:30.042Z,57.75
2017-07-29T19:48:02.130Z,57.78
2017-07-29T19:50:35.116Z,58.03
2017-07-29T19:53:17.036Z,58.02
2017-07-29T19:55:51.614Z,58.08
2017-07-29T19:58:24.787Z,58.01
2017-07-29T20:00:56.977Z,58.11
2017-07-29T20:03:29.539Z,58.21
2017-07-29T20:06:01.705Z,58.21
2017-07-29T20:08:34.000Z,58.17
2017-07-29T20:11:06.775Z,58.21
2017-07-29T20:13:39.304Z,58.18
2017-07-29T20:16:12.147Z,58.21
2017-07-29T20:18:44.737Z,58.43
2017-07-29T20:21:17.554Z,58.44
2017-07-29T20:23:53.973Z,58.50
2017-07-29T20:26:26.347Z,58.58
2017-07-29T20:28:59.738Z,58.72
2017-07-29T20:31:32.775Z,58.78
2017-07-29T20:34:06.810Z,58.77
2017-07-29T20:36:39.443Z,58.54
2017-07-29T20:39:51.718Z,58.64
2017-07-29T20:42:48.796Z,59.17
2017-07-29T20:45:44.225Z,59.73
2017-07-29T20:48:32.208Z,59.40
2017-07-29T20:51:31.159Z,59.24
2017-07-29T20:54:08.530Z,59.38
2017-07-29T20:56:41.655Z,59.12
2017-07-29T20:59:14.321Z,58.95
2017-07-29T21:01:46.633Z,58.97
2017-07-29T21:04:18.857Z,58.80
2017-07-29T21:06:53.966Z,58.71
2017-07-29T21:09:26.277Z,58.69
2017-07-29T21:11:59.352Z,58.74
2017-07-29T21:14:32.617Z,58.72
2017-07-29T21:17:04.865Z,58.75
2017-07-29T21:19:37.453Z,58.72
2017-07-29T21:22:09.613Z,58.83
2017-07-29T21:24:41.751Z,58.77
2017-07-29T21:27:13.954Z,58.73
2017-07-29T21:29:46.173Z,58.77
2017-07-29T21:32:19.684Z,58.66
2017-07-29T21:34:54.407Z,58.62
2017-07-29T21:37:26.724Z,58.69
2017-07-29T21:40:11.920Z,58.68
2017-07-29T21:42:45.742Z,58.67
2017-07-29T21:45:18.126Z,58.64
2017-07-29T21:47:53.458Z,58.53
2017-07-29T21:50:26.349Z,58.60
2017-07-29T21:52:59.133Z,58.59
2017-07-29T21:55:33.168Z,58.66
2017-07-29T21:58:05.708Z,58.63
2017-07-29T22:00:38.237Z,58.61
2017-07-29T22:03:10.762Z,58.65
2017-07-29T22:05:42.953Z,58.54
2017-07-29T22:08:15.337Z,58.64
2017-07-29T22:10:47.927Z,58.55
2017-07-29T22:13:19.931Z,58.65
2017-07-29T22:15:52.282Z,58.35
2017-07-29T22:18:25.476Z,58.40
2017-07-29T22:20:58.396Z,58.33
2017-07-29T22:23:31.032Z,58.46
2017-07-29T22:26:03.262Z,58.60
2017-07-29T22:28:36.924Z,58.41
2017-07-29T22:31:10.618Z,58.43
2017-07-29T22:33:42.901Z,58.53
2017-07-29T22:36:15.017Z,58.30
2017-07-29T22:38:49.325Z,58.39
2017-07-29T22:41:22.490Z,58.31
2017-07-29T22:43:55.783Z,58.30
2017-07-29T22:46:28.200Z,58.24
2017-07-29T22:49:00.523Z,58.20
2017-07-29T22:51:32.647Z,58.30
2017-07-29T22:54:04.920Z,58.35
2017-07-29T22:56:36.823Z,58.17
2017-07-29T22:59:08.793Z,58.25
2017-07-29T23:01:41.269Z,58.17
2017-07-29T23:04:13.470Z,58.16
2017-07-29T23:06:45.683Z,58.21
2017-07-29T23:09:18.518Z,58.21
2017-07-29T23:11:52.773Z,58.36
2017-07-29T23:14:24.864Z,58.27
2017-07-29T23:16:57.221Z,58.43
2017-07-29T23:19:29.524Z,58.24
2017-07-29T23:22:01.607Z,58.22
2017-07-29T23:24:33.949Z,58.22
2017-07-29T23:27:06.053Z,58.34
2017-07-29T23:29:38.268Z,58.23
2017-07-29T23:32:10.654Z,58.13
2017-07-29T23:34:42.642Z,58.11
2017-07-29T23:37:15.049Z,58.15
2017-07-29T23:39:49.207Z,58.20
2017-07-29T23:42:21.214Z,58.23
2017-07-29T23:44:57.095Z,58.32
2017-07-29T23:47:29.116Z,58.24
2017-07-29T23:50:02.834Z,58.26
2017-07-29T23:52:35.005Z,58.27
2017-07-29T23:55:07.965Z,58.32
2017-07-29T23:57:40.541Z,58.33
